createdAt,value
2017-11-25T00:00:23.226Z,5.76
2017-11-25T00:02:49.661Z,5.76
2017-11-25T00:05:16.107Z,5.70
2017-11-25T00:07:42.538Z,5.69
2017-11-25T00:10:08.964Z,5.66
2017-11-25T00:12:36.122Z,5.72
2017-11-25T00:15:02.447Z,5.78
2017-11-25T00:17:28.966Z,5.70
2017-11-25T00:19:55.409Z,5.69
2017-11-25T00:22:21.783Z,5.70
2017-11-25T00:24:48.141Z,5.70
2017-11-25T00:27:14.518Z,5.75
2017-11-25T00:29:41.754Z,5.73
2017-11-25T00:32:08.104Z,5.73
2017-11-25T00:34:34.435Z,5.68
2017-11-25T00:37:00.974Z,5.64
2017-11-25T00:39:27.408Z,5.67
2017-11-25T00:41:53.812Z,5.71
2017-11-25T00:44:20.285Z,5.71
2017-11-25T00:46:47.326Z,5.64
2017-11-25T00:49:13.770Z,5.65
2017-11-25T00:51:40.195Z,5.66
2017-11-25T00:54:06.638Z,5.57
2017-11-25T00:56:33.167Z,5.38
2017-11-25T00:58:59.604Z,5.43
2017-11-25T01:01:26.037Z,5.43
2017-11-25T01:03:53.197Z,5.41
2017-11-25T01:06:19.622Z,5.44
2017-11-25T01:08:46.068Z,5.39
2017-11-25T01:11:12.492Z,5.35
2017-11-25T01:13:38.934Z,5.03
2017-11-25T01:16:05.369Z,5.20
2017-11-25T01:18:31.796Z,5.20
2017-11-25T01:20:59.050Z,5.24
2017-11-25T01:23:25.492Z,5.25
2017-11-25T01:25:51.920Z,5.22
2017-11-25T01:28:18.287Z,5.29
2017-11-25T01:30:44.684Z,5.34
2017-11-25T01:33:11.119Z,5.37
2017-11-25T01:35:37.555Z,5.43
2017-11-25T01:38:04.710Z,5.44
2017-11-25T01:40:31.243Z,5.43
2017-11-25T01:42:57.680Z,5.39
2017-11-25T01:45:24.121Z,5.35
2017-11-25T01:47:50.555Z,5.37
2017-11-25T01:50:16.982Z,5.38
2017-11-25T01:52:43.519Z,5.37
2017-11-25T01:55:10.578Z,5.40
2017-11-25T01:57:37.014Z,5.40
2017-11-25T02:00:03.442Z,5.39
2017-11-25T02:02:29.874Z,5.39
2017-11-25T02:04:56.309Z,5.36
2017-11-25T02:07:22.750Z,5.36
2017-11-25T02:09:49.184Z,5.32
2017-11-25T02:12:16.429Z,5.30
2017-11-25T02:14:42.966Z,5.27
2017-11-25T02:17:09.410Z,5.23
2017-11-25T02:19:35.770Z,5.26
2017-11-25T02:22:02.136Z,5.23
2017-11-25T02:24:28.577Z,5.21
2017-11-25T02:26:55.028Z,5.08
2017-11-25T02:29:22.197Z,5.03
2017-11-25T02:31:48.624Z,5.02
2017-11-25T02:34:15.161Z,5.05
2017-11-25T02:36:41.599Z,5.06
2017-11-25T02:39:08.034Z,5.06
2017-11-25T02:41:34.477Z,5.00
2017-11-25T02:44:00.900Z,4.91
2017-11-25T02:46:28.154Z,4.87
2017-11-25T02:48:54.588Z,4.94
2017-11-25T02:51:21.023Z,4.99
2017-11-25T02:53:47.457Z,4.95
2017-11-25T02:56:13.906Z,4.98
2017-11-25T02:58:40.327Z,4.95
2017-11-25T03:01:06.774Z,4.97
2017-11-25T03:03:34.014Z,4.89
2017-11-25T03:06:00.457Z,4.97
2017-11-25T03:08:26.896Z,5.00
2017-11-25T03:10:53.319Z,4.98
2017-11-25T03:13:19.762Z,5.01
2017-11-25T03:15:46.188Z,5.04
2017-11-25T03:18:12.630Z,5.05
2017-11-25T03:20:39.875Z,5.08
2017-11-25T03:23:06.310Z,5.09
2017-11-25T03:25:32.754Z,5.12
2017-11-25T03:27:59.221Z,5.12
2017-11-25T03:30:25.590Z,5.10
2017-11-25T03:32:52.034Z,5.14
2017-11-25T03:35:18.493Z,5.16
2017-11-25T03:37:45.703Z,5.20
2017-11-25T03:40:12.171Z,5.23
2017-11-25T03:42:38.606Z,5.27
2017-11-25T03:45:05.045Z,5.28
2017-11-25T03:47:31.477Z,5.21
2017-11-25T03:49:57.910Z,5.24
2017-11-25T03:52:24.351Z,5.25
2017-11-25T03:54:51.599Z,5.24
2017-11-25T03:57:18.034Z,5.24
2017-11-25T03:59:44.468Z,5.28
2017-11-25T04:02:10.911Z,5.29
2017-11-25T04:04:37.346Z,5.31
2017-11-25T04:07:03.745Z,5.23
2017-11-25T04:09:30.207Z,5.26
2017-11-25T04:11:57.359Z,5.23
2017-11-25T04:14:23.759Z,5.15
2017-11-25T04:16:50.238Z,5.01
2017-11-25T04:19:16.696Z,5.05
2017-11-25T04:21:43.213Z,5.04
2017-11-25T04:24:09.634Z,5.03
2017-11-25T04:26:36.083Z,5.08
2017-11-25T04:29:03.323Z,5.13
2017-11-25T04:31:29.724Z,5.18
2017-11-25T04:33:56.200Z,5.24
2017-11-25T04:36:22.625Z,5.28
2017-11-25T04:38:49.062Z,5.15
2017-11-25T04:41:15.496Z,5.18
2017-11-25T04:43:41.929Z,5.27
2017-11-25T04:46:09.090Z,5.23
2017-11-25T04:48:35.515Z,5.29
2017-11-25T04:51:01.959Z,5.30
2017-11-25T04:53:28.390Z,5.32
2017-11-25T04:55:54.923Z,5.34
2017-11-25T04:58:21.365Z,5.30
2017-11-25T05:00:47.803Z,5.26
2017-11-25T05:03:14.841Z,5.23
2017-11-25T05:05:41.283Z,5.27
2017-11-25T05:08:07.711Z,5.28
2017-11-25T05:10:34.145Z,5.31
2017-11-25T05:13:00.588Z,5.30
2017-11-25T05:15:27.013Z,5.21
2017-11-25T05:17:53.458Z,5.10
2017-11-25T05:20:20.534Z,5.13
2017-11-25T05:22:46.931Z,5.17
2017-11-25T05:25:13.372Z,5.19
2017-11-25T05:27:39.734Z,5.19
2017-11-25T05:30:06.079Z,5.22
2017-11-25T05:32:32.465Z,5.25
2017-11-25T05:34:58.798Z,5.27
2017-11-25T05:37:26.063Z,5.25
2017-11-25T05:39:52.385Z,5.24
2017-11-25T05:42:18.831Z,5.22
2017-11-25T05:44:45.358Z,5.28
2017-11-25T05:47:11.728Z,5.23
2017-11-25T05:49:38.085Z,5.17
2017-11-25T05:52:04.563Z,5.21
2017-11-25T05:54:31.717Z,5.25
2017-11-25T05:56:58.154Z,5.31
2017-11-25T05:59:24.578Z,5.39
2017-11-25T06:01:50.996Z,5.45
2017-11-25T06:04:17.446Z,5.44
2017-11-25T06:06:43.882Z,5.37
2017-11-25T06:09:10.324Z,5.35
2017-11-25T06:11:37.578Z,5.35
2017-11-25T06:14:04.004Z,5.40
2017-11-25T06:16:30.336Z,5.43
2017-11-25T06:18:56.771Z,5.44
2017-11-25T06:21:23.214Z,5.48
2017-11-25T06:23:49.622Z,5.50
2017-11-25T06:26:16.040Z,5.46
2017-11-25T06:28:43.226Z,5.52
2017-11-25T06:31:09.664Z,5.58
2017-11-25T06:33:36.105Z,5.63
2017-11-25T06:36:02.542Z,5.68
2017-11-25T06:38:28.950Z,5.69
2017-11-25T06:40:55.403Z,5.69
2017-11-25T06:43:21.835Z,5.66
2017-11-25T06:45:49.099Z,5.65
2017-11-25T06:48:15.524Z,5.68
2017-11-25T06:50:41.957Z,5.73
2017-11-25T06:53:08.393Z,5.82
2017-11-25T06:55:34.827Z,5.86
2017-11-25T06:58:01.272Z,5.83
2017-11-25T07:00:27.664Z,5.89
2017-11-25T07:02:54.856Z,5.88
2017-11-25T07:05:21.282Z,5.91
2017-11-25T07:07:47.716Z,5.98
2017-11-25T07:10:14.152Z,6.05
2017-11-25T07:12:40.591Z,6.09
2017-11-25T07:15:07.126Z,6.16
2017-11-25T07:17:33.864Z,6.26
2017-11-25T07:20:00.720Z,6.34
2017-11-25T07:22:27.144Z,6.36
2017-11-25T07:24:53.586Z,6.35
2017-11-25T07:27:20.013Z,6.37
2017-11-25T07:29:46.652Z,6.51
2017-11-25T07:32:13.096Z,6.55
2017-11-25T07:34:39.634Z,6.56
2017-11-25T07:37:06.068Z,6.54
2017-11-25T07:39:32.494Z,6.55
2017-11-25T07:52:04.224Z,6.62
2017-11-25T07:54:30.660Z,6.62
2017-11-25T07:56:57.922Z,6.63
2017-11-25T08:04:27.567Z,6.50
2017-11-25T08:06:54.010Z,6.43
2017-11-25T08:09:20.540Z,6.44
2017-11-25T08:11:47.069Z,6.45
2017-11-25T08:14:13.502Z,6.45
2017-11-25T08:16:39.938Z,6.50
2017-11-25T08:19:06.576Z,6.60
2017-11-25T08:21:33.122Z,6.68
2017-11-25T08:23:59.557Z,6.73
2017-11-25T08:26:25.998Z,6.78
2017-11-25T08:28:52.529Z,6.80
2017-11-25T08:31:19.160Z,6.85
2017-11-25T08:33:45.603Z,6.88
2017-11-25T08:36:12.047Z,6.89
2017-11-25T08:38:38.677Z,6.98
2017-11-25T08:41:05.105Z,7.02
2017-11-25T08:43:31.760Z,7.09
2017-11-25T08:45:58.602Z,7.07
2017-11-25T08:48:25.125Z,7.09
2017-11-25T08:50:51.875Z,7.08
2017-11-25T08:53:18.301Z,7.09
2017-11-25T08:55:44.933Z,7.10
2017-11-25T08:58:11.578Z,7.17
2017-11-25T09:00:38.091Z,7.19
2017-11-25T09:03:04.664Z,7.30
2017-11-25T09:05:31.621Z,7.38
2017-11-25T09:07:58.241Z,7.46
2017-11-25T09:10:24.803Z,7.50
2017-11-25T09:12:51.832Z,7.50
2017-11-25T09:15:18.567Z,7.57
2017-11-25T09:17:45.311Z,7.63
2017-11-25T09:20:12.265Z,7.67
2017-11-25T09:22:38.698Z,7.70
2017-11-25T09:25:05.176Z,7.61
2017-11-25T09:27:31.664Z,7.73
2017-11-25T09:29:58.695Z,7.77
2017-11-25T09:32:25.147Z,7.77
2017-11-25T09:34:51.715Z,7.70
2017-11-25T09:37:18.220Z,7.62
2017-11-25T09:39:44.970Z,7.62
2017-11-25T09:42:11.406Z,7.64
2017-11-25T09:44:37.935Z,7.69
2017-11-25T09:47:04.368Z,7.71
2017-11-25T09:49:30.892Z,7.66
2017-11-25T09:51:57.339Z,7.66
2017-11-25T09:54:23.956Z,7.69
2017-11-25T09:56:51.241Z,7.72
2017-11-25T09:59:17.703Z,7.81
2017-11-25T10:01:44.104Z,7.93
2017-11-25T10:04:10.540Z,8.06
2017-11-25T10:09:08.918Z,8.19
2017-11-25T10:11:35.369Z,8.19
2017-11-25T10:14:01.805Z,8.17
2017-11-25T10:16:28.342Z,8.20
2017-11-25T10:18:54.878Z,8.20
2017-11-25T10:21:21.327Z,8.28
2017-11-25T10:23:47.762Z,8.35
2017-11-25T10:26:14.285Z,8.45
2017-11-25T10:28:41.233Z,8.49
2017-11-25T10:31:07.667Z,8.56
2017-11-25T10:33:34.107Z,8.59
2017-11-25T10:36:00.535Z,8.60
2017-11-25T10:38:27.081Z,8.62
2017-11-25T10:40:53.514Z,8.63
2017-11-25T10:43:19.945Z,8.63
2017-11-25T10:45:46.395Z,8.67
2017-11-25T10:48:13.427Z,8.74
2017-11-25T10:50:40.037Z,8.77
2017-11-25T10:53:06.610Z,8.74
2017-11-25T10:55:33.555Z,8.59
2017-11-25T10:58:00.208Z,8.50
2017-11-25T11:00:26.727Z,8.48
2017-11-25T11:02:53.547Z,8.51
2017-11-25T11:05:20.515Z,8.45
2017-11-25T11:07:46.990Z,8.47
2017-11-25T11:10:13.581Z,8.54
2017-11-25T11:12:40.140Z,8.65
2017-11-25T11:15:06.667Z,8.75
2017-11-25T11:17:33.275Z,8.80
2017-11-25T11:20:00.258Z,8.77
2017-11-25T11:22:26.797Z,8.79
2017-11-25T11:24:53.334Z,8.74
2017-11-25T11:27:19.695Z,8.83
2017-11-25T11:29:46.614Z,8.77
2017-11-25T11:32:13.150Z,8.79
2017-11-25T11:34:40.088Z,8.71
2017-11-25T11:37:06.840Z,8.67
2017-11-25T11:39:33.475Z,8.65
2017-11-25T11:41:59.911Z,8.63
2017-11-25T11:44:26.338Z,8.56
2017-11-25T11:46:53.213Z,8.46
2017-11-25T11:49:19.683Z,8.42
2017-11-25T11:51:46.051Z,8.50
2017-11-25T11:54:12.383Z,8.57
2017-11-25T11:56:38.825Z,8.57
2017-11-25T11:59:05.347Z,8.52
2017-11-25T12:01:31.790Z,8.28
2017-11-25T12:03:58.122Z,8.05
2017-11-25T12:06:24.564Z,8.07
2017-11-25T12:08:51.195Z,8.16
2017-11-25T12:11:17.638Z,8.20
2017-11-25T12:13:44.073Z,8.24
2017-11-25T12:16:10.501Z,8.31
2017-11-25T12:18:37.030Z,8.38
2017-11-25T12:21:03.479Z,8.46
2017-11-25T12:23:29.905Z,8.44
2017-11-25T12:25:56.340Z,8.42
2017-11-25T12:28:23.272Z,8.42
2017-11-25T12:30:49.691Z,8.29
2017-11-25T12:33:16.162Z,8.13
2017-11-25T12:35:42.697Z,8.09
2017-11-25T12:38:09.231Z,8.16
2017-11-25T12:40:35.668Z,8.21
2017-11-25T12:43:02.616Z,8.17
2017-11-25T12:45:29.055Z,8.21
2017-11-25T12:47:55.592Z,8.10
2017-11-25T12:50:22.848Z,8.12
2017-11-25T12:52:49.373Z,8.12
2017-11-25T12:55:15.970Z,8.09
2017-11-25T12:57:42.443Z,8.07
2017-11-25T13:00:08.881Z,8.13
2017-11-25T13:02:35.319Z,8.11
2017-11-25T13:05:01.751Z,8.16
2017-11-25T13:07:28.188Z,8.19
2017-11-25T13:09:54.620Z,8.14
2017-11-25T13:12:21.055Z,8.01
2017-11-25T13:14:47.631Z,7.93
2017-11-25T13:17:13.996Z,7.88
2017-11-25T13:19:40.462Z,7.84
2017-11-25T13:22:06.998Z,7.81
2017-11-25T13:24:33.432Z,7.83
2017-11-25T13:26:59.868Z,7.70
2017-11-25T13:29:26.311Z,7.65
2017-11-25T13:31:52.736Z,7.66
2017-11-25T13:34:19.171Z,7.74
2017-11-25T13:36:45.580Z,7.74
2017-11-25T13:39:12.050Z,7.72
2017-11-25T13:41:38.894Z,7.73
2017-11-25T13:44:05.329Z,7.68
2017-11-25T13:46:32.585Z,7.61
2017-11-25T13:48:59.010Z,7.56
2017-11-25T13:51:25.452Z,7.61
2017-11-25T13:53:52.594Z,7.62
2017-11-25T13:56:19.029Z,7.68
2017-11-25T13:58:45.575Z,7.71
2017-11-25T14:01:12.009Z,7.76
2017-11-25T14:03:38.436Z,7.78
2017-11-25T14:06:04.870Z,7.74
2017-11-25T14:08:31.304Z,7.63
2017-11-25T14:10:57.747Z,7.64
2017-11-25T14:13:24.114Z,7.65
2017-11-25T14:15:50.814Z,7.68
2017-11-25T14:18:17.249Z,7.66
2017-11-25T14:20:43.750Z,7.61
2017-11-25T14:23:10.325Z,7.54
2017-11-25T14:25:36.757Z,7.48
2017-11-25T14:28:03.200Z,7.42
2017-11-25T14:30:29.597Z,7.46
2017-11-25T14:32:56.076Z,7.50
2017-11-25T14:35:22.607Z,7.49
2017-11-25T14:37:49.850Z,7.45
2017-11-25T14:40:16.293Z,7.37
2017-11-25T14:42:43.133Z,7.32
2017-11-25T14:45:10.392Z,7.33
2017-11-25T14:47:36.776Z,7.38
2017-11-25T14:50:03.220Z,7.46
2017-11-25T14:52:29.900Z,7.49
2017-11-25T14:54:56.337Z,7.51
2017-11-25T14:57:22.762Z,7.53
2017-11-25T14:59:49.196Z,7.50
2017-11-25T15:02:15.562Z,7.47
2017-11-25T15:04:41.963Z,7.44
2017-11-25T15:07:08.815Z,7.43
2017-11-25T15:09:35.249Z,7.43
2017-11-25T15:12:01.684Z,7.37
2017-11-25T15:14:28.119Z,7.37
2017-11-25T15:16:54.546Z,7.38
2017-11-25T15:19:20.982Z,7.33
2017-11-25T15:21:47.414Z,7.34
2017-11-25T15:24:14.259Z,7.33
2017-11-25T15:26:40.797Z,7.32
2017-11-25T15:29:07.235Z,7.30
2017-11-25T15:31:33.599Z,7.22
2017-11-25T15:33:59.978Z,7.22
2017-11-25T15:36:26.429Z,7.27
2017-11-25T15:38:52.867Z,7.26
2017-11-25T15:41:19.310Z,7.29
2017-11-25T15:43:45.739Z,7.32
2017-11-25T15:46:12.179Z,7.30
2017-11-25T15:48:38.606Z,7.28
2017-11-25T15:51:05.042Z,7.23
2017-11-25T15:53:31.474Z,7.24
2017-11-25T15:55:57.909Z,7.22
2017-11-25T15:58:24.353Z,7.21
2017-11-25T16:00:50.781Z,7.19
2017-11-25T16:03:17.216Z,7.20
2017-11-25T16:05:43.584Z,7.24
2017-11-25T16:08:09.943Z,7.25
2017-11-25T16:10:36.419Z,7.24
2017-11-25T16:13:02.851Z,7.26
2017-11-25T16:15:30.103Z,7.27
2017-11-25T16:17:56.537Z,7.19
2017-11-25T16:20:22.975Z,7.10
2017-11-25T16:22:49.409Z,7.09
2017-11-25T16:25:15.842Z,7.05
2017-11-25T16:27:42.276Z,7.11
2017-11-25T16:30:08.710Z,7.14
2017-11-25T16:32:35.871Z,7.15
2017-11-25T16:35:02.306Z,7.13
2017-11-25T16:37:28.735Z,7.10
2017-11-25T16:39:55.167Z,7.07
2017-11-25T16:42:21.534Z,7.05
2017-11-25T16:44:47.900Z,7.06
2017-11-25T16:47:14.379Z,7.03
2017-11-25T16:49:41.529Z,6.98
2017-11-25T16:52:07.958Z,6.95
2017-11-25T16:54:34.393Z,7.02
2017-11-25T16:57:00.823Z,6.96
2017-11-25T16:59:27.269Z,6.96
2017-11-25T17:01:53.691Z,6.91
2017-11-25T17:04:20.129Z,6.96
2017-11-25T17:06:47.286Z,6.96
2017-11-25T17:09:13.718Z,6.97
2017-11-25T17:11:40.155Z,6.93
2017-11-25T17:14:06.590Z,6.96
2017-11-25T17:16:33.025Z,6.96
2017-11-25T17:18:59.462Z,6.95
2017-11-25T17:21:25.885Z,6.92
2017-11-25T17:23:53.125Z,6.90
2017-11-25T17:26:19.543Z,6.89
2017-11-25T17:28:46.018Z,6.89
2017-11-25T17:31:12.409Z,6.88
2017-11-25T17:33:38.868Z,6.79
2017-11-25T17:36:05.312Z,6.73
2017-11-25T17:38:31.745Z,6.69
2017-11-25T17:40:58.907Z,6.70
2017-11-25T17:43:25.333Z,6.66
2017-11-25T17:45:51.788Z,6.64
2017-11-25T17:48:18.202Z,6.59
2017-11-25T17:50:44.740Z,6.65
2017-11-25T17:53:11.174Z,6.69
2017-11-25T17:55:37.544Z,6.79
2017-11-25T17:58:04.768Z,6.79
2017-11-25T18:00:31.203Z,6.78
2017-11-25T18:02:57.565Z,6.78
2017-11-25T18:05:23.960Z,6.80
2017-11-25T18:07:50.395Z,6.81
2017-11-25T18:10:16.934Z,6.84
2017-11-25T18:12:43.376Z,6.85
2017-11-25T18:15:10.518Z,6.87
2017-11-25T18:17:36.962Z,6.85
2017-11-25T18:20:03.387Z,6.80
2017-11-25T18:22:29.821Z,6.81
2017-11-25T18:24:56.257Z,6.82
2017-11-25T18:27:22.691Z,6.86
2017-11-25T18:29:49.128Z,6.86
2017-11-25T18:32:16.286Z,6.85
2017-11-25T18:34:42.713Z,6.78
2017-11-25T18:37:09.150Z,6.77
2017-11-25T18:39:35.515Z,6.76
2017-11-25T18:42:01.893Z,6.74
2017-11-25T18:44:28.247Z,6.61
2017-11-25T18:46:54.681Z,6.68
2017-11-25T18:49:21.925Z,6.72
2017-11-25T18:51:48.369Z,6.71
2017-11-25T18:54:14.805Z,6.70
2017-11-25T18:56:41.225Z,6.70
2017-11-25T18:59:07.643Z,6.74
2017-11-25T19:01:34.017Z,6.76
2017-11-25T19:04:00.447Z,6.68
2017-11-25T19:06:27.701Z,6.66
2017-11-25T19:08:54.129Z,6.58
2017-11-25T19:11:20.564Z,6.60
2017-11-25T19:13:47.002Z,6.57
2017-11-25T19:16:13.462Z,6.60
2017-11-25T19:18:39.984Z,6.47
2017-11-25T19:21:06.413Z,6.50
2017-11-25T19:23:33.670Z,6.40
2017-11-25T19:26:00.092Z,6.29
2017-11-25T19:28:26.527Z,6.24
2017-11-25T19:30:52.962Z,6.16
2017-11-25T19:33:19.396Z,6.16
2017-11-25T19:35:45.838Z,6.16
2017-11-25T19:38:12.265Z,6.12
2017-11-25T19:40:39.509Z,6.10
2017-11-25T19:43:05.926Z,6.08
2017-11-25T19:45:32.391Z,6.01
2017-11-25T19:47:58.940Z,6.02
2017-11-25T19:50:25.359Z,6.04
2017-11-25T19:52:51.802Z,6.00
2017-11-25T19:55:18.237Z,6.00
2017-11-25T19:57:45.514Z,5.98
2017-11-25T20:00:11.917Z,6.02
2017-11-25T20:02:38.352Z,6.03
2017-11-25T20:05:04.787Z,6.08
2017-11-25T20:07:31.231Z,6.04
2017-11-25T20:09:57.656Z,6.14
2017-11-25T20:12:24.091Z,6.20
2017-11-25T20:14:51.224Z,6.20
2017-11-25T20:17:17.676Z,6.04
2017-11-25T20:19:44.109Z,6.07
2017-11-25T20:22:10.658Z,6.11
2017-11-25T20:24:37.085Z,6.10
2017-11-25T20:27:03.517Z,6.11
2017-11-25T20:29:29.951Z,6.16
2017-11-25T20:31:57.103Z,6.21
2017-11-25T20:34:23.538Z,6.25
2017-11-25T20:36:49.973Z,6.28
2017-11-25T20:39:16.416Z,6.22
2017-11-25T20:41:42.849Z,6.24
2017-11-25T20:44:09.277Z,6.26
2017-11-25T20:46:35.711Z,6.21
2017-11-25T20:49:02.863Z,6.20
2017-11-25T20:51:29.288Z,6.24
2017-11-25T20:53:55.720Z,6.22
2017-11-25T20:56:22.167Z,6.25
2017-11-25T20:58:48.600Z,6.24
2017-11-25T21:01:15.030Z,6.21
2017-11-25T21:03:41.470Z,6.13
2017-11-25T21:06:08.727Z,6.05
2017-11-25T21:08:35.159Z,5.99
2017-11-25T21:11:01.526Z,6.01
2017-11-25T21:13:27.934Z,6.10
2017-11-25T21:15:54.360Z,6.18
2017-11-25T21:18:20.906Z,6.09
2017-11-25T21:20:47.332Z,5.99
2017-11-25T21:23:14.485Z,5.84
2017-11-25T21:25:40.930Z,5.86
2017-11-25T21:28:07.352Z,5.94
2017-11-25T21:30:33.795Z,6.03
2017-11-25T21:33:00.221Z,6.11
2017-11-25T21:35:26.663Z,6.16
2017-11-25T21:37:53.093Z,6.09
2017-11-25T21:40:20.246Z,6.10
2017-11-25T21:42:46.679Z,6.10
2017-11-25T21:45:13.122Z,6.06
2017-11-25T21:47:39.478Z,6.06
2017-11-25T21:50:05.990Z,6.09
2017-11-25T21:52:32.425Z,6.04
2017-11-25T21:54:58.952Z,5.98
2017-11-25T21:57:26.089Z,5.95
2017-11-25T21:59:52.509Z,6.04
2017-11-25T22:02:18.972Z,6.03
2017-11-25T22:04:45.416Z,6.08
2017-11-25T22:07:11.845Z,6.15
2017-11-25T22:09:38.172Z,6.13
2017-11-25T22:12:04.719Z,6.14
2017-11-25T22:14:31.872Z,6.18
2017-11-25T22:16:58.298Z,6.24
2017-11-25T22:19:24.742Z,6.25
2017-11-25T22:21:51.172Z,6.24
2017-11-25T22:24:17.604Z,6.21
2017-11-25T22:26:44.036Z,6.18
2017-11-25T22:29:10.472Z,6.22
2017-11-25T22:31:37.727Z,6.27
2017-11-25T22:34:04.159Z,6.28
2017-11-25T22:36:30.708Z,6.26
2017-11-25T22:38:57.142Z,6.26
2017-11-25T22:41:23.499Z,6.22
2017-11-25T22:43:49.907Z,6.22
2017-11-25T22:46:16.333Z,6.21
2017-11-25T22:48:43.594Z,6.18
2017-11-25T22:51:10.029Z,6.15
2017-11-25T22:53:36.456Z,6.03
2017-11-25T22:56:02.889Z,5.96
2017-11-25T22:58:29.332Z,5.99
2017-11-25T23:00:55.759Z,6.07
2017-11-25T23:03:22.193Z,6.10
2017-11-25T23:05:49.353Z,6.15
2017-11-25T23:08:15.779Z,6.22
2017-11-25T23:10:42.111Z,6.21
2017-11-25T23:13:08.648Z,6.22
2017-11-25T23:15:35.091Z,6.13
2017-11-25T23:18:01.450Z,6.16
2017-11-25T23:20:27.961Z,6.13
2017-11-25T23:22:55.112Z,6.14
2017-11-25T23:25:21.477Z,6.11
2017-11-25T23:27:47.870Z,6.04
2017-11-25T23:30:14.304Z,6.04
2017-11-25T23:32:40.748Z,6.07
2017-11-25T23:35:07.179Z,6.09
2017-11-25T23:37:33.617Z,6.13
2017-11-25T23:40:00.863Z,6.16
2017-11-25T23:42:27.307Z,6.07
2017-11-25T23:44:53.740Z,5.99
2017-11-25T23:47:20.175Z,5.92
2017-11-25T23:49:46.610Z,5.88
2017-11-25T23:52:13.044Z,5.86
2017-11-25T23:54:39.439Z,5.91
2017-11-25T23:57:06.727Z,5.94
2017-11-25T23:59:33.160Z,5.95
